Strona główna
METAR-TAF:

METAR-TAF

Lotnisko :

Le Puy-en-Velay, Francja

Szerokość geograficzna: 45-04-50N, Długość geograficzna: 003-45-46E, wysokość: 833 m

Aktualna obserwacja pogody

Raport powstał 10 godziny i 29 minut temu, godzina 19:00 UTC
Wiatr 17 kt od południe
Temperatura 9°C
Wilgotność 81%
Ciśnienie 1022 hPa
Widzialność 10 km lub więcej
Brak chmur poniżej 1500 m i brak chmur cumulonimbus

METAR: LFHP 161900Z AUTO 17017KT CAVOK 09/06 Q1022

czas: 06:29 (05:29 UTC)


TAF: brakujący

Obserwacja i prognoza pogody dla ponad 4000 lotnisk (raport METAR i TAF).

Dostępne stacje oznaczono żółtymi i czerwonymi punktami na mapie.

Najedź kursorem aby zobaczyć nazwę stacji.

Kliknij aby zobaczyć obserwacje i prognozy pogody.

Aby zmienić mapę: kliknij na zielony przycisk z czarnym krzyżykiem, aby powiększyć; na zielony przycisk z myślnikiem, aby pomniejszyć; na zielone strzałki, aby przejść do map sąsiednich.


METAR-TAF: